首页
METAR-TAF:

METAR-TAF

机场 :

维多利亚国际机场

維多利亞, 不列颠哥伦比亚, 加拿大

纬度: 48-39N, 经度: 123-26W, 海拔: 20米

当前天气观测

该预报发布于1小时和14分钟前的12:00 UTC
风速4节,风向西转西南
温度 14°C
湿度 88%
气压 1013 hPa
能見度: 48.3公里
少量云层高于25000英尺

METAR: CYYJ 211200Z 25004KT 30SM FEW250 14/12 A2991 RMK CI1 SLP131

时间: 06:14 (13:14 UTC)

预报

该预报发布于1小时和35分钟前的11:39 UTC
预报有效从21日的 12点(UTC)到 22日的 12点(UTC)
风速3节,风向多变
能見度: 10公里
散云层高于25000英尺
成为
从 21日的 16点(UTC)到 21日的 18点(UTC)
风速8节,风向东转东北
成为
从 22日的 01点(UTC)到 22日的 03点(UTC)
风速3节,风向多变

TAF: CYYJ 211139Z 2112/2212 VRB03KT P6SM SCT250 BECMG 2116/2118 06008KT BECMG 2201/2203 VRB03KT RMK NXT FCST BY 211800Z

超过4000个机场的气象观测和天气预报(METAR&TAF报告)。

可查询的气象台以黄色和红色小点在地图上表示。

将鼠标移到小点上方,可查看气象台名称。

然后点击查看天气观测和预报。

如需切换地图:点击带黑十字的绿色按钮放大地图;点击带横线的绿色按钮缩小地图;或者点击绿色箭头查看邻近地区的地图。


METAR-TAF: